Time;durP1;ratioP1;P1;durP2;ratioP2;P2;SDS_P1;SDS_P2;PMS_P1;PMS_P2;Temp;Humidity;BMP_temperature;BMP_pressure;BME280_temperature;BME280_humidity;BME280_pressure;Samples;Min_cycle;Max_cycle;Signal;HPM_P1;HPM_P2
2022/10/31 00:01:38;;;;;;;16.38;4.68;;;18.30;64.60;;;;;;6215335;28;20069;-71
2022/10/31 00:04:39;;;;;;;13.38;5.45;;;18.20;64.80;;;;;;6242740;28;20033;-71
2022/10/31 00:07:40;;;;;;;18.55;6.22;;;18.00;64.80;;;;;;6232726;28;20494;-72
2022/10/31 00:10:42;;;;;;;13.10;5.40;;;18.10;65.00;;;;;;6235671;28;20489;-73
2022/10/31 00:13:42;;;;;;;20.27;5.70;;;18.10;65.10;;;;;;6213253;28;20038;-71
2022/10/31 00:16:43;;;;;;;15.15;5.13;;;18.10;65.10;;;;;;6239377;28;20052;-72
2022/10/31 00:19:44;;;;;;;19.08;5.43;;;18.10;65.30;;;;;;6223079;28;20041;-72
2022/10/31 00:22:45;;;;;;;17.23;5.22;;;18.10;65.10;;;;;;6225111;28;20117;-71
2022/10/31 00:25:46;;;;;;;13.48;5.70;;;18.00;65.20;;;;;;6225983;28;20336;-71
2022/10/31 00:28:47;;;;;;;13.40;5.47;;;18.00;65.30;;;;;;6221843;28;20026;-72
2022/10/31 00:31:47;;;;;;;21.02;6.25;;;18.00;65.30;;;;;;6210635;28;20049;-73
2022/10/31 00:34:48;;;;;;;11.98;5.00;;;18.00;65.30;;;;;;6194270;28;20048;-73
2022/10/31 00:37:49;;;;;;;13.68;5.10;;;18.00;65.30;;;;;;6209928;28;20064;-72
2022/10/31 00:40:50;;;;;;;22.02;6.05;;;18.00;65.30;;;;;;6212567;28;20180;-72
2022/10/31 00:43:51;;;;;;;15.90;5.05;;;18.00;65.40;;;;;;6213346;28;20123;-72
2022/10/31 00:46:52;;;;;;;13.13;5.18;;;17.90;65.40;;;;;;6210958;28;20034;-72
2022/10/31 00:49:56;;;;;;;16.15;5.43;;;17.90;65.50;;;;;;6217806;28;20030;-72
2022/10/31 00:52:57;;;;;;;12.43;5.78;;;17.80;65.50;;;;;;6213980;28;20349;-72
2022/10/31 00:55:58;;;;;;;22.02;5.78;;;17.80;65.60;;;;;;6209245;28;20030;-73
2022/10/31 00:58:59;;;;;;;14.35;5.13;;;17.80;65.80;;;;;;6209804;28;20456;-72
2022/10/31 01:02:00;;;;;;;12.05;5.43;;;17.70;66.00;;;;;;6209485;28;20046;-73
2022/10/31 01:05:01;;;;;;;10.52;4.82;;;17.70;66.00;;;;;;6215729;28;20038;-72
2022/10/31 01:08:02;;;;;;;12.63;4.55;;;17.70;66.00;;;;;;6240379;28;20578;-72
2022/10/31 01:11:04;;;;;;;17.05;5.45;;;17.80;66.00;;;;;;6226873;28;20492;-72
2022/10/31 01:14:08;;;;;;;25.05;5.32;;;17.70;66.00;;;;;;6243968;28;20090;-72
2022/10/31 01:17:09;;;;;;;9.43;4.70;;;17.70;65.90;;;;;;6235349;28;20037;-72
2022/10/31 01:20:11;;;;;;;16.30;5.25;;;17.80;66.00;;;;;;6225097;28;20370;-72
2022/10/31 01:23:12;;;;;;;14.70;4.75;;;17.80;65.80;;;;;;6206432;28;20035;-72
2022/10/31 01:26:23;;;;;;;18.48;5.22;;;17.80;65.90;;;;;;6209813;28;20065;-72
2022/10/31 01:29:24;;;;;;;13.95;4.93;;;17.80;65.90;;;;;;6210226;28;20038;-72
2022/10/31 01:32:28;;;;;;;12.80;5.20;;;17.70;65.80;;;;;;6206922;28;20026;-71
2022/10/31 01:35:29;;;;;;;7.20;4.32;;;17.70;65.80;;;;;;6209784;28;20042;-72
2022/10/31 01:38:30;;;;;;;15.18;4.93;;;17.70;65.80;;;;;;6212858;28;20069;-72
2022/10/31 01:41:34;;;;;;;11.65;5.05;;;17.70;65.70;;;;;;6208450;28;20459;-72
2022/10/31 01:44:35;;;;;;;13.27;5.35;;;17.70;65.80;;;;;;6202161;28;20042;-71
2022/10/31 01:47:44;;;;;;;11.07;4.78;;;17.70;65.70;;;;;;6206846;28;20034;-72
2022/10/31 01:50:48;;;;;;;11.20;4.78;;;17.70;65.70;;;;;;6220187;28;20128;-72
2022/10/31 01:53:52;;;;;;;10.73;4.45;;;17.60;65.70;;;;;;6209692;28;20464;-72
2022/10/31 01:56:56;;;;;;;8.90;4.78;;;17.60;65.80;;;;;;6205109;28;20121;-72
2022/10/31 02:00:02;;;;;;;14.60;4.70;;;17.60;65.90;;;;;;6215046;28;20038;-72
2022/10/31 02:03:14;;;;;;;12.75;4.15;;;17.60;66.10;;;;;;6214831;28;20096;-72
2022/10/31 02:06:48;;;;;;;13.48;5.07;;;17.50;66.00;;;;;;6216560;28;20034;-72
2022/10/31 02:09:50;;;;;;;9.23;4.53;;;17.50;66.10;;;;;;6238366;28;20049;-72
2022/10/31 02:12:53;;;;;;;17.08;5.45;;;17.50;66.20;;;;;;6230706;28;20036;-72
2022/10/31 02:15:57;;;;;;;12.82;4.65;;;17.50;66.40;;;;;;6228069;28;20038;-72
2022/10/31 02:18:58;;;;;;;17.92;4.63;;;17.50;66.40;;;;;;6224269;28;20184;-72
2022/10/31 02:22:27;;;;;;;15.18;5.07;;;17.40;66.40;;;;;;6232260;28;20487;-73
2022/10/31 02:26:09;;;;;;;13.38;4.43;;;17.40;66.50;;;;;;6219272;28;20040;-73
2022/10/31 02:29:29;;;;;;;19.65;4.70;;;17.40;66.50;;;;;;6225642;28;20045;-73
2022/10/31 02:32:58;;;;;;;16.70;5.20;;;17.50;66.40;;;;;;6227876;28;20044;-73
2022/10/31 02:36:12;;;;;;;13.75;4.72;;;17.50;66.30;;;;;;6231503;28;20071;-73
2022/10/31 02:39:31;;;;;;;15.85;4.68;;;17.50;66.10;;;;;;6233531;28;20103;-73
2022/10/31 02:42:38;;;;;;;;;;;17.50;66.10;;;;;;6220124;28;20053;-71
2022/10/31 02:45:53;;;;;;;18.80;4.95;;;17.60;66.00;;;;;;6237698;28;19913;-72
2022/10/31 02:49:00;;;;;;;14.15;4.43;;;17.60;65.80;;;;;;6216187;28;20061;-72
2022/10/31 02:52:01;;;;;;;11.32;4.70;;;17.60;66.60;;;;;;6213326;28;20044;-72
2022/10/31 02:55:26;;;;;;;11.60;4.40;;;17.60;65.70;;;;;;6212127;28;20037;-73
2022/10/31 02:58:36;;;;;;;14.98;4.63;;;17.60;65.70;;;;;;6210770;28;20030;-72
2022/10/31 03:02:11;;;;;;;10.48;4.40;;;17.60;65.70;;;;;;6215431;28;20042;-72
2022/10/31 03:05:23;;;;;;;13.93;4.32;;;17.60;65.80;;;;;;6218453;28;20029;-72
2022/10/31 03:08:35;;;;;;;8.52;4.30;;;17.60;65.70;;;;;;6244477;28;20038;-73
2022/10/31 03:12:02;;;;;;;16.77;4.35;;;17.60;65.70;;;;;;6221367;28;20030;-73
2022/10/31 03:15:12;;;;;;;9.85;4.43;;;17.60;65.80;;;;;;6234216;28;20129;-73
2022/10/31 03:18:21;;;;;;;9.65;4.70;;;17.50;65.70;;;;;;6227599;28;20033;-72
2022/10/31 03:21:33;;;;;;;9.88;4.20;;;17.50;65.90;;;;;;6224673;28;20049;-72
2022/10/31 03:24:38;;;;;;;15.05;4.80;;;17.50;66.00;;;;;;6227793;28;20034;-73
2022/10/31 03:27:42;;;;;;;11.15;4.30;;;17.50;66.10;;;;;;6237991;28;20493;-72
2022/10/31 03:30:45;;;;;;;12.25;4.68;;;17.50;66.10;;;;;;6225133;28;20040;-73
2022/10/31 03:33:47;;;;;;;12.40;4.10;;;17.50;66.10;;;;;;6240298;28;20120;-72
2022/10/31 03:36:51;;;;;;;14.88;4.72;;;17.50;66.10;;;;;;6242606;28;20351;-73
2022/10/31 03:39:55;;;;;;;16.85;4.38;;;17.50;66.10;;;;;;6234512;28;20497;-73
2022/10/31 03:43:05;;;;;;;10.50;4.63;;;17.50;66.00;;;;;;6235078;28;20117;-73
2022/10/31 03:46:07;;;;;;;15.05;4.43;;;17.60;65.90;;;;;;6224566;28;20056;-73
2022/10/31 03:49:09;;;;;;;12.10;4.68;;;17.60;65.90;;;;;;6235895;28;20055;-73
2022/10/31 03:52:18;;;;;;;12.70;4.22;;;17.60;65.90;;;;;;6235858;28;20030;-73
2022/10/31 03:55:27;;;;;;;18.17;4.63;;;17.60;65.90;;;;;;6227737;28;20037;-74
2022/10/31 03:58:48;;;;;;;13.23;4.65;;;17.60;65.90;;;;;;6238881;28;20029;-72
2022/10/31 04:01:53;;;;;;;12.18;5.05;;;17.50;65.90;;;;;;6243421;28;20038;-73
2022/10/31 04:04:55;;;;;;;14.88;4.78;;;17.50;65.90;;;;;;6252456;28;20038;-73
2022/10/31 04:07:58;;;;;;;10.50;4.30;;;17.50;66.10;;;;;;6245032;28;20041;-73
2022/10/31 04:11:02;;;;;;;14.70;5.60;;;17.50;66.20;;;;;;6234270;28;20046;-72
2022/10/31 04:14:05;;;;;;;10.68;4.80;;;17.40;66.10;;;;;;6238142;28;20117;-73
2022/10/31 04:17:12;;;;;;;14.23;5.25;;;17.40;66.30;;;;;;6243579;28;20048;-72
2022/10/31 04:20:17;;;;;;;13.27;4.80;;;17.40;66.30;;;;;;6229964;28;20517;-72
2022/10/31 04:23:24;;;;;;;17.88;5.13;;;17.40;66.40;;;;;;6233451;28;20067;-73
2022/10/31 04:26:25;;;;;;;14.10;4.22;;;17.30;66.40;;;;;;6226200;28;20042;-73
2022/10/31 04:29:26;;;;;;;16.65;4.82;;;17.30;66.40;;;;;;6231060;28;20121;-72
2022/10/31 04:32:27;;;;;;;17.48;4.90;;;17.30;66.60;;;;;;6242337;28;20041;-73
2022/10/31 04:35:29;;;;;;;11.40;4.32;;;17.20;66.70;;;;;;6249805;28;20042;-71
2022/10/31 04:38:30;;;;;;;13.88;5.07;;;17.20;66.80;;;;;;6233205;28;20037;-71
2022/10/31 04:41:31;;;;;;;21.80;5.40;;;17.20;67.00;;;;;;6209647;28;20038;-72
2022/10/31 04:44:35;;;;;;;12.18;4.85;;;17.20;67.00;;;;;;6239770;28;20542;-72
2022/10/31 04:47:37;;;;;;;14.60;5.07;;;17.20;67.00;;;;;;6235818;28;20033;-72
2022/10/31 04:50:38;;;;;;;8.80;4.00;;;17.20;67.00;;;;;;6232745;28;20134;-73
2022/10/31 04:53:39;;;;;;;14.07;4.85;;;17.20;67.00;;;;;;6232372;28;20528;-73
2022/10/31 04:56:59;;;;;;;14.18;5.00;;;17.20;67.00;;;;;;6234605;28;20053;-72
2022/10/31 05:00:01;;;;;;;12.98;4.90;;;17.20;67.00;;;;;;6227199;28;20117;-72
2022/10/31 05:03:02;;;;;;;14.10;4.40;;;17.20;67.00;;;;;;6200781;28;20029;-73
2022/10/31 05:06:03;;;;;;;10.55;4.35;;;17.20;67.10;;;;;;6228674;28;20685;-73
2022/10/31 05:09:04;;;;;;;10.90;4.57;;;17.10;67.20;;;;;;6217953;28;20103;-72
2022/10/31 05:12:05;;;;;;;10.82;5.28;;;17.10;67.20;;;;;;6219131;28;20068;-71
2022/10/31 05:15:26;;;;;;;10.82;5.57;;;17.10;67.40;;;;;;6225690;28;20049;-71
2022/10/31 05:19:05;;;;;;;10.90;5.18;;;17.10;68.20;;;;;;6175120;28;20452;-72
2022/10/31 05:22:55;;;;;;;10.48;4.43;;;17.20;67.30;;;;;;6204517;28;20061;-72
2022/10/31 05:25:56;;;;;;;12.30;4.68;;;17.20;67.30;;;;;;6169553;28;20038;-72
2022/10/31 05:28:57;;;;;;;20.55;5.15;;;17.10;67.30;;;;;;6173789;28;20045;-72
2022/10/31 05:31:57;;;;;;;14.55;4.80;;;17.10;67.40;;;;;;6180699;28;20047;-72
2022/10/31 05:35:26;;;;;;;8.05;4.40;;;17.10;67.50;;;;;;6167235;28;20034;-72
2022/10/31 05:38:50;;;;;;;8.85;4.72;;;17.10;67.40;;;;;;6025554;29;20045;-72
2022/10/31 05:42:12;;;;;;;9.95;3.97;;;17.10;67.40;;;;;;6049457;29;20049;-71
2022/10/31 05:45:17;;;;;;;19.63;5.03;;;17.10;68.20;;;;;;6038561;29;20033;-72
2022/10/31 05:48:26;;;;;;;11.73;4.32;;;17.10;67.40;;;;;;6069950;29;20120;-73
2022/10/31 05:52:05;;;;;;;18.93;4.83;;;17.00;67.40;;;;;;6014404;29;20050;-72
2022/10/31 05:55:15;;;;;;;16.20;4.63;;;17.00;67.50;;;;;;6011220;29;20496;-72
2022/10/31 05:58:28;;;;;;;16.17;5.10;;;16.90;67.60;;;;;;5995160;29;20148;-72
2022/10/31 06:01:39;;;;;;;16.25;4.70;;;16.90;67.60;;;;;;5999545;29;20479;-71
2022/10/31 06:04:47;;;;;;;14.57;4.45;;;17.00;67.70;;;;;;6006732;29;20042;-72
2022/10/31 06:07:48;;;;;;;12.43;4.70;;;17.00;67.70;;;;;;6013752;29;20553;-72
2022/10/31 06:10:49;;;;;;;14.52;5.10;;;16.90;67.70;;;;;;6014681;29;20054;-72
2022/10/31 06:13:55;;;;;;;12.45;5.13;;;16.90;67.70;;;;;;6033669;29;20471;-72
2022/10/31 06:16:59;;;;;;;11.63;4.82;;;16.90;67.70;;;;;;6143254;28;20495;-72
2022/10/31 06:20:19;;;;;;;17.77;4.47;;;16.90;67.70;;;;;;6161032;28;20050;-72
2022/10/31 06:23:29;;;;;;;12.68;4.90;;;16.90;67.70;;;;;;6201210;28;20033;-73
2022/10/31 06:26:50;;;;;;;15.52;4.78;;;16.90;67.80;;;;;;6235807;28;20116;-72
2022/10/31 06:29:51;;;;;;;8.38;4.47;;;16.80;67.70;;;;;;6233166;28;20111;-72
2022/10/31 06:33:04;;;;;;;9.30;4.35;;;16.80;67.80;;;;;;6235110;28;20048;-72
2022/10/31 06:36:05;;;;;;;10.73;4.60;;;16.70;67.90;;;;;;6243172;28;20045;-72
2022/10/31 06:39:06;;;;;;;14.00;4.40;;;16.70;68.00;;;;;;6232465;28;20041;-72
2022/10/31 06:42:07;;;;;;;13.50;4.80;;;16.60;68.10;;;;;;6235058;28;20053;-73
2022/10/31 06:45:09;;;;;;;9.55;4.78;;;16.60;68.20;;;;;;6237807;28;20329;-71
2022/10/31 06:48:42;;;;;;;17.83;4.85;;;16.60;68.20;;;;;;6229714;28;20041;-72
2022/10/31 06:51:53;;;;;;;16.67;4.95;;;16.60;68.30;;;;;;6241648;28;20485;-71
2022/10/31 06:54:54;;;;;;;18.05;4.70;;;16.60;68.30;;;;;;6229284;28;20034;-72
2022/10/31 06:57:59;;;;;;;18.33;5.68;;;16.60;68.40;;;;;;6232079;28;20107;-73
2022/10/31 07:01:01;;;;;;;11.57;4.80;;;16.60;68.30;;;;;;6209851;28;20394;-72
2022/10/31 07:04:02;;;;;;;11.80;5.53;;;16.60;68.30;;;;;;6240984;28;20117;-72
2022/10/31 07:07:06;;;;;;;18.83;4.93;;;16.60;68.20;;;;;;6235842;28;20395;-72
2022/10/31 07:10:08;;;;;;;8.73;4.45;;;16.60;68.20;;;;;;6253052;28;20038;-72
2022/10/31 07:13:29;;;;;;;11.13;4.47;;;16.60;68.10;;;;;;6213470;28;20061;-73
2022/10/31 07:16:41;;;;;;;13.07;4.75;;;16.50;68.10;;;;;;6234012;28;20360;-72
2022/10/31 07:19:42;;;;;;;12.95;6.13;;;16.50;68.20;;;;;;6227259;28;20364;-73
2022/10/31 07:22:45;;;;;;;15.77;5.80;;;16.50;68.40;;;;;;6239495;28;20048;-72
2022/10/31 07:25:46;;;;;;;12.20;4.10;;;16.50;68.50;;;;;;6220717;28;20403;-72
2022/10/31 07:28:54;;;;;;;14.05;4.43;;;16.50;68.50;;;;;;6235753;28;20455;-72
2022/10/31 07:31:58;;;;;;;8.48;4.32;;;16.60;68.40;;;;;;6215888;28;20137;-72
2022/10/31 07:35:02;;;;;;;11.00;4.65;;;16.60;68.20;;;;;;6205824;28;20107;-72
2022/10/31 07:38:14;;;;;;;10.38;4.70;;;16.60;68.10;;;;;;6223150;28;20085;-72
2022/10/31 07:41:15;;;;;;;13.38;4.85;;;16.70;68.20;;;;;;6235428;28;20049;-72
2022/10/31 07:44:18;;;;;;;16.50;4.88;;;16.70;68.10;;;;;;6219177;28;20053;-72
2022/10/31 07:47:49;;;;;;;11.98;5.40;;;16.80;68.00;;;;;;6239860;28;20037;-72
2022/10/31 07:51:08;;;;;;;23.20;4.88;;;16.80;67.90;;;;;;6231535;28;20053;-72
2022/10/31 07:54:28;;;;;;;14.13;4.93;;;16.90;67.90;;;;;;6232489;28;20034;-71
2022/10/31 07:57:29;;;;;;;16.52;4.97;;;17.00;67.90;;;;;;6236935;28;20076;-71
2022/10/31 08:00:31;;;;;;;16.27;5.25;;;17.10;67.70;;;;;;6233804;28;20460;-72
2022/10/31 08:03:32;;;;;;;17.83;5.63;;;17.10;68.30;;;;;;6230327;28;20303;-72
2022/10/31 08:06:36;;;;;;;18.33;5.30;;;17.30;67.40;;;;;;6234711;28;20084;-70
2022/10/31 08:10:05;;;;;;;15.60;5.65;;;17.40;67.20;;;;;;6230056;28;20128;-72
2022/10/31 08:13:13;;;;;;;14.60;5.10;;;17.50;66.90;;;;;;6220890;28;20039;-72
2022/10/31 08:16:17;;;;;;;16.23;5.53;;;17.60;67.50;;;;;;6231850;28;20087;-72
2022/10/31 08:19:32;;;;;;;13.48;5.57;;;17.70;66.40;;;;;;6217316;28;20415;-71
2022/10/31 08:22:33;;;;;;;13.25;5.10;;;17.90;66.30;;;;;;6240069;28;20037;-71
2022/10/31 08:25:36;;;;;;;20.65;5.97;;;18.00;65.90;;;;;;6251111;28;20033;-72
2022/10/31 08:28:37;;;;;;;13.93;5.90;;;18.20;65.60;;;;;;6216475;28;20101;-72
2022/10/31 08:31:38;;;;;;;16.50;5.40;;;18.30;65.00;;;;;;6224199;28;20038;-73
2022/10/31 08:34:58;;;;;;;20.52;6.80;;;18.40;64.60;;;;;;6229502;28;20053;-73
2022/10/31 08:38:18;;;;;;;15.65;6.00;;;18.50;64.30;;;;;;6234671;28;20058;-72
2022/10/31 08:41:19;;;;;;;12.70;5.07;;;18.50;64.10;;;;;;6240787;28;20281;-72
2022/10/31 08:44:20;;;;;;;12.98;4.72;;;18.50;64.10;;;;;;6233892;28;20076;-72
2022/10/31 08:47:22;;;;;;;21.10;5.15;;;18.60;63.90;;;;;;6232949;28;20030;-73
2022/10/31 08:50:23;;;;;;;10.10;5.15;;;18.70;63.80;;;;;;6227451;28;20122;-73
2022/10/31 08:53:25;;;;;;;11.52;4.50;;;18.70;63.70;;;;;;6223996;28;20034;-73
2022/10/31 08:56:38;;;;;;;11.77;4.93;;;18.80;63.50;;;;;;6219791;28;20038;-73
2022/10/31 08:59:48;;;;;;;24.17;5.93;;;18.90;63.30;;;;;;6240700;28;20038;-72
2022/10/31 09:03:03;;;;;;;14.60;5.35;;;19.00;63.10;;;;;;6217989;28;20049;-72
2022/10/31 09:06:08;;;;;;;15.68;5.45;;;19.10;62.50;;;;;;6232002;28;20110;-72
2022/10/31 09:09:09;;;;;;;14.55;4.80;;;19.30;62.30;;;;;;6239373;28;20054;-72
2022/10/31 09:12:11;;;;;;;23.27;5.88;;;19.30;61.80;;;;;;6228508;28;20022;-72
2022/10/31 09:15:44;;;;;;;16.02;5.07;;;19.40;61.50;;;;;;6229147;28;20037;-73
2022/10/31 09:18:54;;;;;;;41.88;6.90;;;19.50;61.20;;;;;;6196839;28;20117;-73
2022/10/31 09:21:55;;;;;;;12.77;4.93;;;19.60;60.90;;;;;;6237767;28;20029;-73
2022/10/31 09:24:56;;;;;;;17.40;4.05;;;19.60;60.70;;;;;;6228887;28;20033;-72
2022/10/31 09:27:59;;;;;;;17.20;5.13;;;19.80;60.70;;;;;;6229855;28;20061;-73
2022/10/31 09:31:00;;;;;;;24.30;5.90;;;19.80;60.50;;;;;;6235987;28;20033;-72
2022/10/31 09:34:20;;;;;;;13.90;4.70;;;19.80;60.20;;;;;;6225129;28;20033;-72
2022/10/31 09:37:30;;;;;;;18.88;4.93;;;19.80;60.00;;;;;;6231055;28;20045;-73
2022/10/31 09:40:36;;;;;;;12.15;5.43;;;19.90;60.00;;;;;;6220098;28;20501;-73
2022/10/31 09:44:07;;;;;;;22.38;5.50;;;20.00;59.90;;;;;;6221259;28;20366;-72
2022/10/31 09:47:27;;;;;;;25.58;5.95;;;20.00;60.00;;;;;;6228160;28;20038;-72
2022/10/31 09:51:14;;;;;;;14.25;4.75;;;20.20;59.80;;;;;;6215810;28;20049;-72
2022/10/31 09:54:25;;;;;;;12.95;4.85;;;20.30;59.50;;;;;;6224877;28;20038;-72
2022/10/31 09:57:35;;;;;;;17.40;4.65;;;20.40;59.20;;;;;;6220519;28;20030;-72
2022/10/31 10:00:36;;;;;;;13.38;4.63;;;20.70;58.70;;;;;;6229383;28;20420;-72
2022/10/31 10:03:46;;;;;;;19.98;4.60;;;21.00;58.20;;;;;;6247106;28;20072;-72
2022/10/31 10:07:22;;;;;;;23.60;4.32;;;21.20;57.80;;;;;;6228950;28;20049;-72
2022/10/31 10:11:22;;;;;;;12.10;4.45;;;21.50;57.00;;;;;;6230844;28;20041;-72
2022/10/31 10:15:07;;;;;;;20.13;5.40;;;21.80;56.50;;;;;;6212920;28;20169;-72
2022/10/31 10:18:38;;;;;;;10.97;5.37;;;22.10;55.90;;;;;;6169289;28;20093;-72
2022/10/31 10:22:09;;;;;;;17.65;5.03;;;22.20;55.40;;;;;;6165740;28;20042;-74
2022/10/31 10:25:23;;;;;;;19.23;4.85;;;22.30;55.00;;;;;;6165391;28;20046;-73
2022/10/31 10:28:29;;;;;;;9.25;4.85;;;22.40;54.90;;;;;;6153376;28;20035;-72
2022/10/31 10:31:42;;;;;;;15.55;4.90;;;22.50;54.50;;;;;;6172943;28;20035;-73
2022/10/31 10:34:50;;;;;;;16.30;4.95;;;22.60;53.70;;;;;;6163741;28;20124;-72
2022/10/31 10:37:57;;;;;;;10.88;4.13;;;22.60;53.80;;;;;;6172692;28;20034;-72
2022/10/31 10:41:02;;;;;;;5.90;3.17;;;22.80;53.40;;;;;;6139051;28;20064;-72
2022/10/31 10:44:08;;;;;;;12.57;3.70;;;22.90;52.40;;;;;;6170305;28;20468;-72
2022/10/31 10:50:36;;;;;;;7.18;3.17;;;23.20;51.50;;;;;;6165857;28;20420;-72
2022/10/31 10:54:00;;;;;;;7.43;2.85;;;23.50;51.10;;;;;;6174654;28;20316;-72
2022/10/31 10:57:19;;;;;;;8.52;3.58;;;23.70;50.40;;;;;;6242357;28;20041;-73
2022/10/31 11:00:22;;;;;;;7.05;2.92;;;24.00;48.60;;;;;;6242713;28;20056;-73
2022/10/31 11:03:23;;;;;;;9.10;3.03;;;24.20;47.90;;;;;;6229434;28;20052;-73
2022/10/31 11:06:27;;;;;;;12.60;3.60;;;24.50;47.60;;;;;;6231471;28;20045;-73
2022/10/31 11:09:29;;;;;;;12.77;3.25;;;24.90;47.20;;;;;;6225054;28;20033;-73
2022/10/31 11:12:33;;;;;;;16.20;3.75;;;25.30;46.50;;;;;;6224007;28;20041;-73
2022/10/31 11:15:49;;;;;;;10.05;3.20;;;25.70;45.90;;;;;;6220842;28;20037;-72
2022/10/31 11:18:50;;;;;;;11.38;3.10;;;26.00;45.40;;;;;;6236446;28;20038;-73
2022/10/31 11:21:51;;;;;;;8.07;3.00;;;26.40;44.80;;;;;;6228865;28;20503;-73
2022/10/31 11:24:52;;;;;;;7.57;2.88;;;26.90;43.80;;;;;;6230299;28;20037;-73
2022/10/31 11:28:04;;;;;;;8.63;3.40;;;27.30;42.80;;;;;;6236856;28;20045;-73
2022/10/31 11:31:13;;;;;;;8.25;2.97;;;27.60;42.20;;;;;;6238694;28;20044;-72
2022/10/31 11:34:21;;;;;;;12.07;3.08;;;27.80;41.00;;;;;;6215735;28;20039;-73
2022/10/31 11:37:25;;;;;;;9.38;3.72;;;27.90;40.60;;;;;;6245553;28;20363;-72
2022/10/31 11:40:27;;;;;;;9.70;3.28;;;27.90;40.40;;;;;;6226536;28;20038;-73
2022/10/31 11:43:28;;;;;;;11.23;3.30;;;28.00;40.50;;;;;;6211640;28;20045;-74
2022/10/31 11:46:41;;;;;;;19.15;3.20;;;28.20;40.40;;;;;;6228782;28;20049;-72
2022/10/31 11:49:45;;;;;;;11.85;3.60;;;28.30;39.70;;;;;;6221822;28;20113;-74
2022/10/31 11:52:46;;;;;;;6.55;2.83;;;28.20;40.20;;;;;;6227788;28;20103;-73
2022/10/31 11:55:58;;;;;;;6.72;3.50;;;27.90;40.70;;;;;;6231400;28;20108;-74
2022/10/31 11:59:05;;;;;;;15.32;3.40;;;27.80;40.80;;;;;;6230138;28;20037;-73
2022/10/31 12:02:19;;;;;;;14.63;3.45;;;27.60;40.90;;;;;;6258952;28;20506;-74
2022/10/31 12:05:27;;;;;;;7.10;3.33;;;27.20;41.10;;;;;;6232555;28;20029;-73
2022/10/31 12:08:32;;;;;;;14.75;3.58;;;27.00;41.60;;;;;;6239623;28;20471;-73
2022/10/31 12:11:54;;;;;;;11.10;3.53;;;26.90;41.80;;;;;;6240924;28;20463;-73
2022/10/31 12:15:17;;;;;;;12.27;3.35;;;26.60;42.00;;;;;;6241202;28;20076;-73
2022/10/31 12:18:43;;;;;;;8.35;3.28;;;26.40;42.50;;;;;;6241622;28;20057;-73
2022/10/31 12:21:59;;;;;;;12.30;5.53;;;26.10;42.90;;;;;;6230509;28;20381;-72
2022/10/31 12:25:10;;;;;;;12.05;4.07;;;25.80;43.40;;;;;;6240442;28;20042;-72
2022/10/31 12:28:17;;;;;;;12.32;4.28;;;25.60;43.90;;;;;;6239797;28;20059;-72
2022/10/31 12:32:01;;;;;;;10.25;3.50;;;25.40;44.10;;;;;;6217432;28;20030;-73
2022/10/31 12:35:27;;;;;;;9.32;3.72;;;25.40;44.30;;;;;;6183044;28;20060;-73
2022/10/31 12:38:43;;;;;;;17.08;4.15;;;25.40;44.30;;;;;;6185333;28;20638;-73
2022/10/31 12:41:59;;;;;;;19.85;4.28;;;25.30;44.30;;;;;;6198659;28;20082;-74
2022/10/31 12:45:08;;;;;;;14.15;3.33;;;25.10;44.70;;;;;;6212192;28;20064;-72
2022/10/31 12:48:18;;;;;;;12.73;3.78;;;25.10;44.80;;;;;;6213682;28;20042;-72
2022/10/31 12:51:49;;;;;;;23.45;4.80;;;25.00;45.10;;;;;;6214674;28;20044;-73
2022/10/31 12:55:03;;;;;;;15.75;4.20;;;24.90;45.30;;;;;;6194578;28;20080;-73
2022/10/31 12:58:25;;;;;;;10.32;3.35;;;24.90;45.60;;;;;;6213341;28;20041;-73
2022/10/31 13:01:44;;;;;;;15.52;3.45;;;24.90;45.90;;;;;;6209314;28;20065;-73
2022/10/31 13:04:49;;;;;;;19.88;4.30;;;24.90;46.10;;;;;;6209356;28;20033;-72
2022/10/31 13:08:04;;;;;;;17.25;4.43;;;24.90;46.10;;;;;;6212852;28;20034;-73
2022/10/31 13:11:10;;;;;;;9.05;3.40;;;24.90;46.20;;;;;;6206070;28;20116;-73
2022/10/31 13:14:32;;;;;;;10.55;3.42;;;24.90;46.30;;;;;;6233297;28;20049;-72
2022/10/31 13:17:46;;;;;;;10.90;3.92;;;24.80;46.30;;;;;;6233338;28;20087;-72
2022/10/31 13:20:48;;;;;;;8.13;3.00;;;24.80;46.50;;;;;;6226171;28;20149;-73
2022/10/31 13:23:51;;;;;;;13.32;3.63;;;24.90;47.20;;;;;;6206727;28;20034;-73
2022/10/31 13:26:58;;;;;;;10.25;3.17;;;24.80;46.60;;;;;;6229092;28;20041;-72
2022/10/31 13:30:12;;;;;;;13.50;3.13;;;24.80;46.70;;;;;;6231247;28;20072;-73
2022/10/31 13:33:21;;;;;;;8.75;2.78;;;24.90;46.60;;;;;;6232855;28;20038;-73
2022/10/31 13:36:38;;;;;;;10.40;3.38;;;24.90;46.50;;;;;;6239908;28;20038;-72
2022/10/31 13:39:58;;;;;;;12.02;3.38;;;24.90;46.60;;;;;;6238603;28;20133;-72
2022/10/31 13:43:42;;;;;;;11.32;3.50;;;24.90;46.60;;;;;;6237997;28;20099;-72
2022/10/31 13:46:44;;;;;;;13.20;4.22;;;24.90;46.60;;;;;;6210640;28;20459;-73
2022/10/31 13:49:44;;;;;;;9.57;3.28;;;24.90;46.50;;;;;;6231318;28;20029;-72
2022/10/31 13:52:46;;;;;;;7.32;3.00;;;25.00;46.30;;;;;;6221017;28;20112;-74
2022/10/31 13:55:50;;;;;;;10.23;3.50;;;24.90;46.30;;;;;;6202961;28;20037;-73
2022/10/31 13:58:59;;;;;;;8.80;3.17;;;24.90;46.30;;;;;;6206153;28;20125;-72
2022/10/31 14:02:02;;;;;;;16.25;3.25;;;24.90;46.30;;;;;;6205369;28;20686;-73
2022/10/31 14:05:17;;;;;;;12.07;3.60;;;24.90;46.40;;;;;;6225279;28;20073;-73
2022/10/31 14:08:22;;;;;;;11.55;3.50;;;24.90;46.60;;;;;;6206169;28;20117;-72
2022/10/31 14:11:27;;;;;;;16.05;3.20;;;24.80;46.70;;;;;;6218106;28;20092;-72
2022/10/31 14:14:41;;;;;;;11.85;3.65;;;24.80;46.70;;;;;;6214671;28;20608;-72
2022/10/31 14:17:52;;;;;;;10.98;2.70;;;24.70;46.80;;;;;;6222265;28;20029;-73
2022/10/31 14:20:53;;;;;;;13.80;3.47;;;24.60;46.70;;;;;;6217189;28;20429;-73
2022/10/31 14:23:55;;;;;;;10.48;2.55;;;24.60;46.60;;;;;;6225515;28;20045;-73
2022/10/31 14:27:00;;;;;;;17.42;2.67;;;24.50;46.50;;;;;;6184158;28;20050;-72
2022/10/31 14:30:14;;;;;;;13.32;2.92;;;24.50;46.50;;;;;;6224988;28;20355;-72
2022/10/31 14:33:20;;;;;;;10.68;3.47;;;24.50;46.70;;;;;;6231665;28;20042;-72
2022/10/31 14:36:56;;;;;;;13.45;3.03;;;24.50;47.40;;;;;;6234795;28;20485;-73
2022/10/31 14:40:15;;;;;;;10.73;2.88;;;24.40;46.80;;;;;;6231002;28;20139;-72
2022/10/31 14:43:44;;;;;;;11.98;3.35;;;24.40;46.70;;;;;;6219956;28;20129;-73
2022/10/31 14:46:48;;;;;;;7.53;3.03;;;24.40;46.80;;;;;;6230285;28;20370;-73
2022/10/31 14:50:06;;;;;;;17.65;2.95;;;24.30;46.90;;;;;;6229011;28;20057;-72
2022/10/31 14:53:13;;;;;;;;;;;24.30;47.00;;;;;;6230213;28;20136;-72
2022/10/31 14:56:39;;;;;;;13.85;3.50;;;24.30;47.00;;;;;;6232295;28;19913;-72
2022/10/31 14:59:49;;;;;;;11.57;2.72;;;24.30;46.90;;;;;;6219396;28;20111;-73
2022/10/31 15:02:55;;;;;;;7.15;2.85;;;24.30;47.00;;;;;;6233233;28;20642;-73
2022/10/31 15:06:00;;;;;;;9.38;3.38;;;24.30;47.10;;;;;;6244306;28;20057;-73
2022/10/31 15:09:01;;;;;;;13.52;2.65;;;24.20;47.10;;;;;;6238410;28;20116;-72
2022/10/31 15:12:22;;;;;;;9.23;2.53;;;24.20;47.10;;;;;;6234321;28;20102;-71
2022/10/31 15:15:26;;;;;;;13.13;3.35;;;24.10;47.20;;;;;;6236825;28;20041;-71
2022/10/31 15:18:28;;;;;;;16.80;2.80;;;24.20;47.20;;;;;;6255809;28;20109;-71
2022/10/31 15:21:30;;;;;;;10.60;2.72;;;24.10;47.30;;;;;;6232508;28;20096;-73
2022/10/31 15:24:35;;;;;;;7.20;2.80;;;24.10;47.40;;;;;;6217686;28;20045;-72
2022/10/31 15:27:40;;;;;;;11.45;2.90;;;24.00;47.50;;;;;;6242343;28;20037;-73
2022/10/31 15:30:53;;;;;;;13.98;2.92;;;24.10;47.60;;;;;;6233736;28;20107;-72
2022/10/31 15:33:57;;;;;;;9.93;2.75;;;24.00;47.80;;;;;;6237492;28;20120;-71
2022/10/31 15:36:58;;;;;;;9.02;2.92;;;24.00;48.00;;;;;;6233468;28;20045;-71
2022/10/31 15:40:07;;;;;;;13.45;3.20;;;23.90;48.00;;;;;;6231475;28;20038;-72
2022/10/31 15:43:15;;;;;;;17.70;3.72;;;23.80;48.20;;;;;;6215651;28;20033;-72
2022/10/31 15:46:15;;;;;;;9.82;3.50;;;23.80;48.30;;;;;;6253249;28;20387;-72
2022/10/31 15:49:28;;;;;;;10.48;2.97;;;23.80;48.40;;;;;;6233975;28;20037;-73
2022/10/31 15:52:35;;;;;;;9.15;3.10;;;23.70;48.50;;;;;;6246449;28;20463;-72
2022/10/31 15:55:56;;;;;;;10.02;3.90;;;23.60;48.50;;;;;;6243839;28;20057;-73
2022/10/31 15:58:59;;;;;;;8.23;2.80;;;23.60;48.70;;;;;;6238871;28;20087;-73
2022/10/31 16:02:03;;;;;;;8.32;3.10;;;23.50;48.80;;;;;;6236610;28;20044;-73
2022/10/31 16:05:16;;;;;;;10.25;2.90;;;23.50;49.00;;;;;;6237470;28;20446;-72
2022/10/31 16:08:25;;;;;;;12.68;2.67;;;23.40;49.20;;;;;;6248652;28;20490;-72
2022/10/31 16:11:33;;;;;;;12.60;3.78;;;23.30;49.20;;;;;;6240583;28;20033;-72
2022/10/31 16:14:40;;;;;;;15.02;3.30;;;23.30;49.40;;;;;;6231940;28;20048;-73
2022/10/31 16:17:44;;;;;;;13.18;2.90;;;23.20;49.50;;;;;;6227030;28;20045;-72